sensor_id;sensor_type;location;lat;lon;timestamp;P1;durP1;ratioP1;P2;durP2;ratioP2
14116;SDS011;7137;51.436;6.544;2023-03-08T00:02:41;12.03;;;8.70;;
14116;SDS011;7137;51.436;6.544;2023-03-08T00:05:43;13.60;;;9.83;;
14116;SDS011;7137;51.436;6.544;2023-03-08T00:08:45;12.20;;;9.17;;
14116;SDS011;7137;51.436;6.544;2023-03-08T00:11:47;11.60;;;8.93;;
14116;SDS011;7137;51.436;6.544;2023-03-08T00:14:50;11.57;;;9.10;;
14116;SDS011;7137;51.436;6.544;2023-03-08T00:17:52;11.73;;;8.50;;
14116;SDS011;7137;51.436;6.544;2023-03-08T00:20:57;11.60;;;8.63;;
14116;SDS011;7137;51.436;6.544;2023-03-08T00:23:59;13.33;;;8.90;;
14116;SDS011;7137;51.436;6.544;2023-03-08T00:27:01;12.80;;;8.70;;
14116;SDS011;7137;51.436;6.544;2023-03-08T00:30:04;11.03;;;8.50;;
14116;SDS011;7137;51.436;6.544;2023-03-08T00:33:07;12.93;;;9.20;;
14116;SDS011;7137;51.436;6.544;2023-03-08T00:36:09;11.23;;;8.30;;
14116;SDS011;7137;51.436;6.544;2023-03-08T00:39:14;11.80;;;8.87;;
14116;SDS011;7137;51.436;6.544;2023-03-08T00:42:15;10.93;;;8.27;;
14116;SDS011;7137;51.436;6.544;2023-03-08T00:45:18;12.20;;;9.23;;
14116;SDS011;7137;51.436;6.544;2023-03-08T00:48:20;14.23;;;9.50;;
14116;SDS011;7137;51.436;6.544;2023-03-08T00:51:22;11.60;;;9.00;;
14116;SDS011;7137;51.436;6.544;2023-03-08T00:54:23;12.10;;;9.37;;
14116;SDS011;7137;51.436;6.544;2023-03-08T00:57:25;10.67;;;8.67;;
14116;SDS011;7137;51.436;6.544;2023-03-08T01:00:27;12.47;;;8.80;;
14116;SDS011;7137;51.436;6.544;2023-03-08T01:03:30;11.80;;;8.47;;
14116;SDS011;7137;51.436;6.544;2023-03-08T01:06:32;10.80;;;8.03;;
14116;SDS011;7137;51.436;6.544;2023-03-08T01:09:33;10.40;;;7.83;;
14116;SDS011;7137;51.436;6.544;2023-03-08T01:12:35;12.00;;;9.33;;
14116;SDS011;7137;51.436;6.544;2023-03-08T01:15:38;11.07;;;8.50;;
14116;SDS011;7137;51.436;6.544;2023-03-08T01:18:40;10.80;;;8.50;;
14116;SDS011;7137;51.436;6.544;2023-03-08T01:21:41;11.30;;;8.40;;
14116;SDS011;7137;51.436;6.544;2023-03-08T01:24:43;11.83;;;8.13;;
14116;SDS011;7137;51.436;6.544;2023-03-08T01:27:45;9.13;;;7.57;;
14116;SDS011;7137;51.436;6.544;2023-03-08T01:30:48;11.80;;;8.77;;
14116;SDS011;7137;51.436;6.544;2023-03-08T01:33:49;10.87;;;8.67;;
14116;SDS011;7137;51.436;6.544;2023-03-08T01:36:51;10.97;;;8.13;;
14116;SDS011;7137;51.436;6.544;2023-03-08T01:39:53;12.23;;;9.03;;
14116;SDS011;7137;51.436;6.544;2023-03-08T01:42:54;11.40;;;8.67;;
14116;SDS011;7137;51.436;6.544;2023-03-08T01:49:27;11.10;;;8.97;;
14116;SDS011;7137;51.436;6.544;2023-03-08T01:52:34;10.93;;;8.40;;
14116;SDS011;7137;51.436;6.544;2023-03-08T01:55:56;11.97;;;8.60;;
14116;SDS011;7137;51.436;6.544;2023-03-08T01:58:58;9.83;;;8.20;;
14116;SDS011;7137;51.436;6.544;2023-03-08T02:02:02;12.23;;;9.70;;
14116;SDS011;7137;51.436;6.544;2023-03-08T02:05:05;12.00;;;9.27;;
14116;SDS011;7137;51.436;6.544;2023-03-08T02:08:08;13.67;;;9.60;;
14116;SDS011;7137;51.436;6.544;2023-03-08T02:11:10;12.23;;;9.70;;
14116;SDS011;7137;51.436;6.544;2023-03-08T02:14:13;12.20;;;9.77;;
14116;SDS011;7137;51.436;6.544;2023-03-08T02:17:16;11.60;;;9.33;;
14116;SDS011;7137;51.436;6.544;2023-03-08T02:20:19;12.93;;;9.20;;
14116;SDS011;7137;51.436;6.544;2023-03-08T02:23:26;11.93;;;9.33;;
14116;SDS011;7137;51.436;6.544;2023-03-08T02:26:28;13.37;;;10.17;;
14116;SDS011;7137;51.436;6.544;2023-03-08T02:29:32;12.37;;;10.07;;
14116;SDS011;7137;51.436;6.544;2023-03-08T02:32:34;12.60;;;9.87;;
14116;SDS011;7137;51.436;6.544;2023-03-08T02:35:36;12.10;;;9.63;;
14116;SDS011;7137;51.436;6.544;2023-03-08T02:38:42;12.53;;;9.43;;
14116;SDS011;7137;51.436;6.544;2023-03-08T02:41:44;13.00;;;10.53;;
14116;SDS011;7137;51.436;6.544;2023-03-08T02:44:45;12.53;;;9.87;;
14116;SDS011;7137;51.436;6.544;2023-03-08T02:47:47;11.90;;;9.30;;
14116;SDS011;7137;51.436;6.544;2023-03-08T02:50:49;12.80;;;9.63;;
14116;SDS011;7137;51.436;6.544;2023-03-08T02:53:51;11.57;;;9.40;;
14116;SDS011;7137;51.436;6.544;2023-03-08T02:56:54;12.80;;;9.87;;
14116;SDS011;7137;51.436;6.544;2023-03-08T02:59:55;13.63;;;10.30;;
14116;SDS011;7137;51.436;6.544;2023-03-08T03:02:57;11.97;;;9.37;;
14116;SDS011;7137;51.436;6.544;2023-03-08T03:05:58;13.47;;;9.80;;
14116;SDS011;7137;51.436;6.544;2023-03-08T03:09:04;13.47;;;9.70;;
14116;SDS011;7137;51.436;6.544;2023-03-08T03:12:06;12.70;;;9.77;;
14116;SDS011;7137;51.436;6.544;2023-03-08T03:15:09;11.20;;;9.20;;
14116;SDS011;7137;51.436;6.544;2023-03-08T03:18:11;11.87;;;9.07;;
14116;SDS011;7137;51.436;6.544;2023-03-08T03:21:13;13.27;;;9.73;;
14116;SDS011;7137;51.436;6.544;2023-03-08T03:24:16;11.67;;;9.70;;
14116;SDS011;7137;51.436;6.544;2023-03-08T03:27:17;13.13;;;9.63;;
14116;SDS011;7137;51.436;6.544;2023-03-08T03:30:19;13.37;;;9.40;;
14116;SDS011;7137;51.436;6.544;2023-03-08T03:33:21;11.63;;;9.30;;
14116;SDS011;7137;51.436;6.544;2023-03-08T03:36:22;11.80;;;9.13;;
14116;SDS011;7137;51.436;6.544;2023-03-08T03:39:25;12.20;;;9.10;;
14116;SDS011;7137;51.436;6.544;2023-03-08T03:42:32;11.77;;;9.67;;
14116;SDS011;7137;51.436;6.544;2023-03-08T03:45:34;12.13;;;8.80;;
14116;SDS011;7137;51.436;6.544;2023-03-08T03:48:37;12.17;;;9.20;;
14116;SDS011;7137;51.436;6.544;2023-03-08T03:51:39;12.40;;;9.43;;
14116;SDS011;7137;51.436;6.544;2023-03-08T03:54:42;10.93;;;8.37;;
14116;SDS011;7137;51.436;6.544;2023-03-08T03:57:43;11.70;;;9.23;;
14116;SDS011;7137;51.436;6.544;2023-03-08T04:00:45;10.43;;;8.37;;
14116;SDS011;7137;51.436;6.544;2023-03-08T04:03:46;12.30;;;10.03;;
14116;SDS011;7137;51.436;6.544;2023-03-08T04:06:48;11.50;;;9.03;;
14116;SDS011;7137;51.436;6.544;2023-03-08T04:09:51;10.80;;;8.63;;
14116;SDS011;7137;51.436;6.544;2023-03-08T04:12:53;13.33;;;9.20;;
14116;SDS011;7137;51.436;6.544;2023-03-08T04:15:54;11.30;;;8.50;;
14116;SDS011;7137;51.436;6.544;2023-03-08T04:18:57;10.67;;;8.10;;
14116;SDS011;7137;51.436;6.544;2023-03-08T04:21:59;9.67;;;7.63;;
14116;SDS011;7137;51.436;6.544;2023-03-08T04:25:02;10.00;;;7.47;;
14116;SDS011;7137;51.436;6.544;2023-03-08T04:28:04;11.10;;;8.17;;
14116;SDS011;7137;51.436;6.544;2023-03-08T04:31:12;10.37;;;7.43;;
14116;SDS011;7137;51.436;6.544;2023-03-08T04:34:15;9.70;;;7.83;;
14116;SDS011;7137;51.436;6.544;2023-03-08T04:37:16;9.70;;;7.07;;
14116;SDS011;7137;51.436;6.544;2023-03-08T04:40:19;10.80;;;7.93;;
14116;SDS011;7137;51.436;6.544;2023-03-08T04:43:21;11.27;;;7.70;;
14116;SDS011;7137;51.436;6.544;2023-03-08T04:46:23;10.60;;;7.73;;
14116;SDS011;7137;51.436;6.544;2023-03-08T04:49:26;10.03;;;7.93;;
14116;SDS011;7137;51.436;6.544;2023-03-08T04:52:28;11.70;;;8.07;;
14116;SDS011;7137;51.436;6.544;2023-03-08T04:55:31;11.80;;;8.70;;
14116;SDS011;7137;51.436;6.544;2023-03-08T04:58:32;12.47;;;9.00;;
14116;SDS011;7137;51.436;6.544;2023-03-08T05:01:34;11.10;;;8.50;;
14116;SDS011;7137;51.436;6.544;2023-03-08T05:04:36;12.00;;;8.07;;
14116;SDS011;7137;51.436;6.544;2023-03-08T05:07:37;13.13;;;9.20;;
14116;SDS011;7137;51.436;6.544;2023-03-08T05:10:45;11.43;;;8.90;;
14116;SDS011;7137;51.436;6.544;2023-03-08T05:13:47;12.50;;;8.83;;
14116;SDS011;7137;51.436;6.544;2023-03-08T05:16:49;12.70;;;9.70;;
14116;SDS011;7137;51.436;6.544;2023-03-08T05:19:51;13.47;;;9.70;;
14116;SDS011;7137;51.436;6.544;2023-03-08T05:22:53;14.30;;;10.60;;
14116;SDS011;7137;51.436;6.544;2023-03-08T05:25:56;14.53;;;10.70;;
14116;SDS011;7137;51.436;6.544;2023-03-08T05:28:59;16.57;;;11.87;;
14116;SDS011;7137;51.436;6.544;2023-03-08T05:32:01;16.13;;;12.77;;
14116;SDS011;7137;51.436;6.544;2023-03-08T05:35:03;17.23;;;12.90;;
14116;SDS011;7137;51.436;6.544;2023-03-08T05:38:05;17.17;;;13.10;;
14116;SDS011;7137;51.436;6.544;2023-03-08T05:41:11;18.77;;;13.57;;
14116;SDS011;7137;51.436;6.544;2023-03-08T05:44:14;17.33;;;12.70;;
14116;SDS011;7137;51.436;6.544;2023-03-08T05:47:16;17.60;;;13.33;;
14116;SDS011;7137;51.436;6.544;2023-03-08T05:50:17;19.27;;;12.43;;
14116;SDS011;7137;51.436;6.544;2023-03-08T05:53:19;17.57;;;13.07;;
14116;SDS011;7137;51.436;6.544;2023-03-08T05:56:23;18.30;;;14.00;;
14116;SDS011;7137;51.436;6.544;2023-03-08T05:59:25;16.80;;;13.33;;
14116;SDS011;7137;51.436;6.544;2023-03-08T06:02:27;16.27;;;13.23;;
14116;SDS011;7137;51.436;6.544;2023-03-08T06:05:29;18.97;;;14.30;;
14116;SDS011;7137;51.436;6.544;2023-03-08T06:08:31;19.93;;;14.80;;
14116;SDS011;7137;51.436;6.544;2023-03-08T06:11:34;18.63;;;14.27;;
14116;SDS011;7137;51.436;6.544;2023-03-08T06:14:35;17.83;;;14.23;;
14116;SDS011;7137;51.436;6.544;2023-03-08T06:17:37;19.87;;;14.33;;
14116;SDS011;7137;51.436;6.544;2023-03-08T06:20:38;18.53;;;14.50;;
14116;SDS011;7137;51.436;6.544;2023-03-08T06:23:40;16.87;;;12.57;;
14116;SDS011;7137;51.436;6.544;2023-03-08T06:26:43;17.13;;;12.10;;
14116;SDS011;7137;51.436;6.544;2023-03-08T06:29:45;16.17;;;11.97;;
14116;SDS011;7137;51.436;6.544;2023-03-08T06:32:48;16.97;;;12.83;;
14116;SDS011;7137;51.436;6.544;2023-03-08T06:35:55;16.70;;;12.60;;
14116;SDS011;7137;51.436;6.544;2023-03-08T06:38:58;19.97;;;13.77;;
14116;SDS011;7137;51.436;6.544;2023-03-08T06:42:01;17.93;;;12.57;;
14116;SDS011;7137;51.436;6.544;2023-03-08T06:45:03;16.30;;;11.33;;
14116;SDS011;7137;51.436;6.544;2023-03-08T06:48:05;14.93;;;11.20;;
14116;SDS011;7137;51.436;6.544;2023-03-08T06:51:07;17.00;;;11.23;;
14116;SDS011;7137;51.436;6.544;2023-03-08T06:54:08;15.43;;;11.00;;
14116;SDS011;7137;51.436;6.544;2023-03-08T06:57:15;15.27;;;10.00;;
14116;SDS011;7137;51.436;6.544;2023-03-08T07:00:16;13.77;;;9.60;;
14116;SDS011;7137;51.436;6.544;2023-03-08T07:03:19;15.03;;;9.37;;
14116;SDS011;7137;51.436;6.544;2023-03-08T07:06:20;16.03;;;9.17;;
14116;SDS011;7137;51.436;6.544;2023-03-08T07:09:22;13.17;;;7.53;;
14116;SDS011;7137;51.436;6.544;2023-03-08T07:12:27;9.33;;;6.60;;
14116;SDS011;7137;51.436;6.544;2023-03-08T07:15:30;8.23;;;4.63;;
14116;SDS011;7137;51.436;6.544;2023-03-08T07:18:31;7.70;;;4.50;;
14116;SDS011;7137;51.436;6.544;2023-03-08T07:21:33;9.23;;;5.30;;
14116;SDS011;7137;51.436;6.544;2023-03-08T07:24:36;8.13;;;4.47;;
14116;SDS011;7137;51.436;6.544;2023-03-08T07:27:39;8.83;;;5.07;;
14116;SDS011;7137;51.436;6.544;2023-03-08T07:30:44;7.17;;;4.27;;
14116;SDS011;7137;51.436;6.544;2023-03-08T07:33:47;8.00;;;4.50;;
14116;SDS011;7137;51.436;6.544;2023-03-08T07:36:49;8.33;;;4.67;;
14116;SDS011;7137;51.436;6.544;2023-03-08T07:39:51;9.43;;;4.77;;
14116;SDS011;7137;51.436;6.544;2023-03-08T07:42:54;6.80;;;3.83;;
14116;SDS011;7137;51.436;6.544;2023-03-08T07:45:57;8.10;;;4.30;;
14116;SDS011;7137;51.436;6.544;2023-03-08T07:48:59;7.80;;;4.30;;
14116;SDS011;7137;51.436;6.544;2023-03-08T07:52:01;8.00;;;4.50;;
14116;SDS011;7137;51.436;6.544;2023-03-08T07:55:03;8.17;;;5.07;;
14116;SDS011;7137;51.436;6.544;2023-03-08T07:58:06;8.07;;;4.90;;
14116;SDS011;7137;51.436;6.544;2023-03-08T08:01:08;8.23;;;4.97;;
14116;SDS011;7137;51.436;6.544;2023-03-08T08:04:10;6.93;;;4.30;;
14116;SDS011;7137;51.436;6.544;2023-03-08T08:07:12;7.43;;;4.70;;
14116;SDS011;7137;51.436;6.544;2023-03-08T08:10:15;8.33;;;4.53;;
14116;SDS011;7137;51.436;6.544;2023-03-08T08:13:18;8.97;;;4.70;;
14116;SDS011;7137;51.436;6.544;2023-03-08T08:16:20;8.30;;;4.60;;
14116;SDS011;7137;51.436;6.544;2023-03-08T08:19:21;9.13;;;4.90;;
14116;SDS011;7137;51.436;6.544;2023-03-08T08:22:24;7.93;;;5.03;;
14116;SDS011;7137;51.436;6.544;2023-03-08T08:25:25;7.67;;;4.20;;
14116;SDS011;7137;51.436;6.544;2023-03-08T08:28:28;7.43;;;4.37;;
14116;SDS011;7137;51.436;6.544;2023-03-08T08:31:30;7.43;;;4.00;;
14116;SDS011;7137;51.436;6.544;2023-03-08T08:34:32;6.90;;;4.10;;
14116;SDS011;7137;51.436;6.544;2023-03-08T08:37:33;6.63;;;3.77;;
14116;SDS011;7137;51.436;6.544;2023-03-08T08:40:35;6.43;;;3.70;;
14116;SDS011;7137;51.436;6.544;2023-03-08T08:43:38;6.07;;;3.67;;
14116;SDS011;7137;51.436;6.544;2023-03-08T08:46:40;6.10;;;3.80;;
14116;SDS011;7137;51.436;6.544;2023-03-08T08:49:41;6.70;;;3.73;;
14116;SDS011;7137;51.436;6.544;2023-03-08T08:52:44;6.53;;;3.60;;
14116;SDS011;7137;51.436;6.544;2023-03-08T08:55:45;6.63;;;3.97;;
14116;SDS011;7137;51.436;6.544;2023-03-08T08:58:48;8.17;;;3.93;;
14116;SDS011;7137;51.436;6.544;2023-03-08T09:01:50;6.10;;;4.10;;
14116;SDS011;7137;51.436;6.544;2023-03-08T09:04:51;6.63;;;3.90;;
14116;SDS011;7137;51.436;6.544;2023-03-08T09:07:53;8.63;;;3.70;;
14116;SDS011;7137;51.436;6.544;2023-03-08T09:11:00;6.97;;;3.53;;
14116;SDS011;7137;51.436;6.544;2023-03-08T09:14:04;5.83;;;3.60;;
14116;SDS011;7137;51.436;6.544;2023-03-08T09:17:06;6.87;;;3.70;;
14116;SDS011;7137;51.436;6.544;2023-03-08T09:20:08;6.37;;;3.63;;
14116;SDS011;7137;51.436;6.544;2023-03-08T09:23:10;5.40;;;3.40;;
14116;SDS011;7137;51.436;6.544;2023-03-08T09:26:12;6.37;;;3.47;;
14116;SDS011;7137;51.436;6.544;2023-03-08T09:29:15;8.23;;;4.57;;
14116;SDS011;7137;51.436;6.544;2023-03-08T09:32:16;8.17;;;5.20;;
14116;SDS011;7137;51.436;6.544;2023-03-08T09:35:18;9.37;;;5.90;;
14116;SDS011;7137;51.436;6.544;2023-03-08T09:38:19;9.10;;;6.23;;
14116;SDS011;7137;51.436;6.544;2023-03-08T09:41:24;9.63;;;6.30;;
14116;SDS011;7137;51.436;6.544;2023-03-08T09:44:43;10.43;;;7.40;;
14116;SDS011;7137;51.436;6.544;2023-03-08T09:47:57;7.53;;;5.30;;
14116;SDS011;7137;51.436;6.544;2023-03-08T09:51:08;8.43;;;4.80;;
14116;SDS011;7137;51.436;6.544;2023-03-08T09:54:12;7.03;;;4.90;;
14116;SDS011;7137;51.436;6.544;2023-03-08T09:57:18;7.47;;;4.80;;
14116;SDS011;7137;51.436;6.544;2023-03-08T10:00:27;8.17;;;5.33;;
14116;SDS011;7137;51.436;6.544;2023-03-08T10:03:39;7.10;;;5.20;;
14116;SDS011;7137;51.436;6.544;2023-03-08T10:07:07;8.17;;;5.63;;
14116;SDS011;7137;51.436;6.544;2023-03-08T10:10:23;7.87;;;5.53;;
14116;SDS011;7137;51.436;6.544;2023-03-08T10:13:31;7.63;;;5.60;;
14116;SDS011;7137;51.436;6.544;2023-03-08T10:16:36;6.80;;;5.33;;
14116;SDS011;7137;51.436;6.544;2023-03-08T10:19:45;8.23;;;5.80;;
14116;SDS011;7137;51.436;6.544;2023-03-08T10:22:55;6.93;;;5.43;;
14116;SDS011;7137;51.436;6.544;2023-03-08T10:25:59;9.47;;;6.37;;
14116;SDS011;7137;51.436;6.544;2023-03-08T10:29:01;7.73;;;6.07;;
14116;SDS011;7137;51.436;6.544;2023-03-08T10:32:05;7.67;;;5.00;;
14116;SDS011;7137;51.436;6.544;2023-03-08T10:35:13;8.97;;;6.60;;
14116;SDS011;7137;51.436;6.544;2023-03-08T10:38:15;8.40;;;6.43;;
14116;SDS011;7137;51.436;6.544;2023-03-08T10:41:17;8.47;;;6.17;;
14116;SDS011;7137;51.436;6.544;2023-03-08T10:44:28;8.00;;;6.57;;
14116;SDS011;7137;51.436;6.544;2023-03-08T10:47:34;8.73;;;6.77;;
14116;SDS011;7137;51.436;6.544;2023-03-08T10:50:36;9.27;;;7.10;;
14116;SDS011;7137;51.436;6.544;2023-03-08T10:53:38;8.67;;;6.93;;
14116;SDS011;7137;51.436;6.544;2023-03-08T10:56:40;8.63;;;7.63;;
14116;SDS011;7137;51.436;6.544;2023-03-08T10:59:46;8.97;;;7.27;;
14116;SDS011;7137;51.436;6.544;2023-03-08T11:03:00;8.57;;;7.20;;
14116;SDS011;7137;51.436;6.544;2023-03-08T11:06:04;10.53;;;7.63;;
14116;SDS011;7137;51.436;6.544;2023-03-08T11:09:20;9.57;;;7.30;;
14116;SDS011;7137;51.436;6.544;2023-03-08T11:12:24;8.37;;;6.90;;
14116;SDS011;7137;51.436;6.544;2023-03-08T11:15:26;7.80;;;6.33;;
14116;SDS011;7137;51.436;6.544;2023-03-08T11:18:36;9.03;;;6.93;;
14116;SDS011;7137;51.436;6.544;2023-03-08T11:21:48;7.43;;;6.20;;
14116;SDS011;7137;51.436;6.544;2023-03-08T11:25:06;6.67;;;5.10;;
14116;SDS011;7137;51.436;6.544;2023-03-08T11:28:18;6.53;;;5.30;;
14116;SDS011;7137;51.436;6.544;2023-03-08T11:31:30;6.97;;;5.23;;
14116;SDS011;7137;51.436;6.544;2023-03-08T11:34:56;6.33;;;5.40;;
14116;SDS011;7137;51.436;6.544;2023-03-08T11:38:09;7.17;;;5.50;;
14116;SDS011;7137;51.436;6.544;2023-03-08T11:41:18;7.57;;;6.20;;
14116;SDS011;7137;51.436;6.544;2023-03-08T11:44:33;8.53;;;5.93;;
14116;SDS011;7137;51.436;6.544;2023-03-08T11:47:56;9.50;;;6.10;;
14116;SDS011;7137;51.436;6.544;2023-03-08T11:51:21;7.60;;;5.97;;
14116;SDS011;7137;51.436;6.544;2023-03-08T11:54:34;7.20;;;5.60;;
14116;SDS011;7137;51.436;6.544;2023-03-08T11:57:45;6.50;;;5.77;;
14116;SDS011;7137;51.436;6.544;2023-03-08T12:00:52;7.07;;;5.87;;
14116;SDS011;7137;51.436;6.544;2023-03-08T12:04:00;7.00;;;6.20;;
14116;SDS011;7137;51.436;6.544;2023-03-08T12:07:14;20.93;;;17.33;;
14116;SDS011;7137;51.436;6.544;2023-03-08T12:10:21;9.27;;;6.87;;
14116;SDS011;7137;51.436;6.544;2023-03-08T12:13:27;17.80;;;15.97;;
14116;SDS011;7137;51.436;6.544;2023-03-08T12:16:36;9.33;;;6.87;;
14116;SDS011;7137;51.436;6.544;2023-03-08T12:19:45;9.37;;;7.83;;
14116;SDS011;7137;51.436;6.544;2023-03-08T12:22:51;8.97;;;7.73;;
14116;SDS011;7137;51.436;6.544;2023-03-08T12:25:59;9.37;;;8.33;;
14116;SDS011;7137;51.436;6.544;2023-03-08T12:29:09;10.80;;;8.10;;
14116;SDS011;7137;51.436;6.544;2023-03-08T12:32:17;9.77;;;8.60;;
14116;SDS011;7137;51.436;6.544;2023-03-08T12:35:25;9.33;;;8.20;;
14116;SDS011;7137;51.436;6.544;2023-03-08T12:38:34;9.47;;;7.83;;
14116;SDS011;7137;51.436;6.544;2023-03-08T12:41:37;9.17;;;8.07;;
14116;SDS011;7137;51.436;6.544;2023-03-08T12:44:39;10.20;;;8.20;;
14116;SDS011;7137;51.436;6.544;2023-03-08T12:47:40;9.33;;;8.33;;
14116;SDS011;7137;51.436;6.544;2023-03-08T12:50:43;9.40;;;8.40;;
14116;SDS011;7137;51.436;6.544;2023-03-08T12:53:55;11.17;;;8.03;;
14116;SDS011;7137;51.436;6.544;2023-03-08T12:57:00;10.00;;;8.93;;
14116;SDS011;7137;51.436;6.544;2023-03-08T13:00:23;10.70;;;8.63;;
14116;SDS011;7137;51.436;6.544;2023-03-08T13:03:28;10.70;;;8.83;;
14116;SDS011;7137;51.436;6.544;2023-03-08T13:06:52;10.63;;;8.30;;
14116;SDS011;7137;51.436;6.544;2023-03-08T13:10:07;10.67;;;8.87;;
14116;SDS011;7137;51.436;6.544;2023-03-08T13:13:20;11.80;;;9.47;;
14116;SDS011;7137;51.436;6.544;2023-03-08T13:16:31;11.83;;;10.57;;
14116;SDS011;7137;51.436;6.544;2023-03-08T13:19:35;12.87;;;10.60;;
14116;SDS011;7137;51.436;6.544;2023-03-08T13:22:40;14.37;;;12.70;;
14116;SDS011;7137;51.436;6.544;2023-03-08T13:25:54;15.10;;;11.80;;
14116;SDS011;7137;51.436;6.544;2023-03-08T13:29:09;14.20;;;12.47;;
14116;SDS011;7137;51.436;6.544;2023-03-08T13:32:16;21.83;;;18.30;;
14116;SDS011;7137;51.436;6.544;2023-03-08T13:35:19;42.27;;;32.20;;
14116;SDS011;7137;51.436;6.544;2023-03-08T13:38:22;46.23;;;34.67;;
14116;SDS011;7137;51.436;6.544;2023-03-08T13:41:36;47.90;;;38.47;;
14116;SDS011;7137;51.436;6.544;2023-03-08T13:44:38;38.73;;;28.83;;
14116;SDS011;7137;51.436;6.544;2023-03-08T13:47:40;38.67;;;29.80;;
14116;SDS011;7137;51.436;6.544;2023-03-08T13:50:45;31.60;;;26.27;;
14116;SDS011;7137;51.436;6.544;2023-03-08T13:53:49;26.23;;;21.17;;
14116;SDS011;7137;51.436;6.544;2023-03-08T13:56:52;25.83;;;21.90;;
14116;SDS011;7137;51.436;6.544;2023-03-08T13:59:54;45.27;;;37.63;;
14116;SDS011;7137;51.436;6.544;2023-03-08T14:02:58;33.20;;;29.07;;
14116;SDS011;7137;51.436;6.544;2023-03-08T14:06:00;33.00;;;27.03;;
14116;SDS011;7137;51.436;6.544;2023-03-08T14:09:01;27.03;;;22.13;;
14116;SDS011;7137;51.436;6.544;2023-03-08T14:12:06;33.40;;;28.30;;
14116;SDS011;7137;51.436;6.544;2023-03-08T14:15:15;38.33;;;30.67;;
14116;SDS011;7137;51.436;6.544;2023-03-08T14:18:19;73.20;;;48.77;;
14116;SDS011;7137;51.436;6.544;2023-03-08T14:21:22;35.67;;;27.87;;
14116;SDS011;7137;51.436;6.544;2023-03-08T14:24:26;25.53;;;21.97;;
14116;SDS011;7137;51.436;6.544;2023-03-08T14:27:36;25.90;;;21.97;;
14116;SDS011;7137;51.436;6.544;2023-03-08T14:30:45;27.80;;;23.13;;
14116;SDS011;7137;51.436;6.544;2023-03-08T14:33:52;33.73;;;26.37;;
14116;SDS011;7137;51.436;6.544;2023-03-08T14:36:57;37.63;;;31.23;;
14116;SDS011;7137;51.436;6.544;2023-03-08T14:40:17;32.40;;;28.60;;
14116;SDS011;7137;51.436;6.544;2023-03-08T14:43:24;25.20;;;22.20;;
14116;SDS011;7137;51.436;6.544;2023-03-08T14:46:26;25.63;;;22.40;;
14116;SDS011;7137;51.436;6.544;2023-03-08T14:49:29;26.40;;;23.33;;
14116;SDS011;7137;51.436;6.544;2023-03-08T14:52:33;25.70;;;22.47;;
14116;SDS011;7137;51.436;6.544;2023-03-08T14:55:35;31.30;;;28.00;;
14116;SDS011;7137;51.436;6.544;2023-03-08T14:58:41;28.53;;;25.63;;
14116;SDS011;7137;51.436;6.544;2023-03-08T15:01:45;26.67;;;23.63;;
14116;SDS011;7137;51.436;6.544;2023-03-08T15:04:46;31.57;;;28.17;;
14116;SDS011;7137;51.436;6.544;2023-03-08T15:07:48;24.33;;;21.67;;
14116;SDS011;7137;51.436;6.544;2023-03-08T15:10:50;25.00;;;22.37;;
14116;SDS011;7137;51.436;6.544;2023-03-08T15:13:54;21.83;;;19.53;;
14116;SDS011;7137;51.436;6.544;2023-03-08T15:16:55;22.73;;;20.37;;
14116;SDS011;7137;51.436;6.544;2023-03-08T15:19:57;23.07;;;20.67;;
14116;SDS011;7137;51.436;6.544;2023-03-08T15:22:59;22.67;;;20.27;;
14116;SDS011;7137;51.436;6.544;2023-03-08T15:26:04;22.87;;;20.53;;
14116;SDS011;7137;51.436;6.544;2023-03-08T15:29:10;21.73;;;19.43;;
14116;SDS011;7137;51.436;6.544;2023-03-08T15:32:24;23.27;;;20.77;;
14116;SDS011;7137;51.436;6.544;2023-03-08T15:35:25;23.43;;;20.97;;
14116;SDS011;7137;51.436;6.544;2023-03-08T15:38:27;24.00;;;21.50;;
14116;SDS011;7137;51.436;6.544;2023-03-08T15:41:28;23.73;;;20.90;;
14116;SDS011;7137;51.436;6.544;2023-03-08T15:44:31;24.10;;;21.43;;
14116;SDS011;7137;51.436;6.544;2023-03-08T15:47:33;25.13;;;22.43;;
14116;SDS011;7137;51.436;6.544;2023-03-08T15:50:34;25.97;;;22.73;;
14116;SDS011;7137;51.436;6.544;2023-03-08T15:53:36;27.50;;;22.47;;
14116;SDS011;7137;51.436;6.544;2023-03-08T15:56:37;26.00;;;22.07;;
14116;SDS011;7137;51.436;6.544;2023-03-08T15:59:40;27.57;;;23.63;;
14116;SDS011;7137;51.436;6.544;2023-03-08T16:02:42;30.70;;;24.17;;
14116;SDS011;7137;51.436;6.544;2023-03-08T16:05:44;29.37;;;25.20;;
14116;SDS011;7137;51.436;6.544;2023-03-08T16:08:46;28.80;;;24.93;;
14116;SDS011;7137;51.436;6.544;2023-03-08T16:11:48;27.70;;;23.70;;
14116;SDS011;7137;51.436;6.544;2023-03-08T16:14:51;28.80;;;24.90;;
14116;SDS011;7137;51.436;6.544;2023-03-08T16:17:53;27.87;;;24.70;;
14116;SDS011;7137;51.436;6.544;2023-03-08T16:20:55;26.97;;;24.00;;
14116;SDS011;7137;51.436;6.544;2023-03-08T16:23:57;29.47;;;24.87;;
14116;SDS011;7137;51.436;6.544;2023-03-08T16:27:01;28.90;;;25.70;;
14116;SDS011;7137;51.436;6.544;2023-03-08T16:30:06;31.70;;;26.60;;
14116;SDS011;7137;51.436;6.544;2023-03-08T16:33:09;31.13;;;26.77;;
14116;SDS011;7137;51.436;6.544;2023-03-08T16:36:10;34.20;;;27.03;;
14116;SDS011;7137;51.436;6.544;2023-03-08T16:39:12;34.37;;;28.07;;
14116;SDS011;7137;51.436;6.544;2023-03-08T16:42:14;35.37;;;28.17;;
14116;SDS011;7137;51.436;6.544;2023-03-08T16:45:17;37.77;;;31.00;;
14116;SDS011;7137;51.436;6.544;2023-03-08T16:48:19;36.77;;;29.60;;
14116;SDS011;7137;51.436;6.544;2023-03-08T16:51:21;35.43;;;28.23;;
14116;SDS011;7137;51.436;6.544;2023-03-08T16:54:24;33.00;;;25.97;;
14116;SDS011;7137;51.436;6.544;2023-03-08T16:57:25;32.37;;;25.67;;
14116;SDS011;7137;51.436;6.544;2023-03-08T17:00:29;29.73;;;23.23;;
14116;SDS011;7137;51.436;6.544;2023-03-08T17:03:31;29.73;;;23.87;;
14116;SDS011;7137;51.436;6.544;2023-03-08T17:06:33;27.67;;;22.97;;
14116;SDS011;7137;51.436;6.544;2023-03-08T17:09:35;26.43;;;22.27;;
14116;SDS011;7137;51.436;6.544;2023-03-08T17:12:36;25.70;;;20.13;;
14116;SDS011;7137;51.436;6.544;2023-03-08T17:15:40;24.80;;;21.57;;
14116;SDS011;7137;51.436;6.544;2023-03-08T17:18:43;27.17;;;22.33;;
14116;SDS011;7137;51.436;6.544;2023-03-08T17:21:45;23.87;;;19.70;;
14116;SDS011;7137;51.436;6.544;2023-03-08T17:24:49;24.77;;;19.70;;
14116;SDS011;7137;51.436;6.544;2023-03-08T17:27:50;23.97;;;19.93;;
14116;SDS011;7137;51.436;6.544;2023-03-08T17:30:53;22.30;;;18.70;;
14116;SDS011;7137;51.436;6.544;2023-03-08T17:33:55;23.37;;;19.27;;
14116;SDS011;7137;51.436;6.544;2023-03-08T17:36:56;24.30;;;19.40;;
14116;SDS011;7137;51.436;6.544;2023-03-08T17:39:58;25.67;;;20.60;;
14116;SDS011;7137;51.436;6.544;2023-03-08T17:42:59;24.60;;;19.63;;
14116;SDS011;7137;51.436;6.544;2023-03-08T17:46:04;26.43;;;20.93;;
14116;SDS011;7137;51.436;6.544;2023-03-08T17:49:06;27.63;;;22.03;;
14116;SDS011;7137;51.436;6.544;2023-03-08T17:52:08;32.33;;;23.60;;
14116;SDS011;7137;51.436;6.544;2023-03-08T17:55:10;28.20;;;22.63;;
14116;SDS011;7137;51.436;6.544;2023-03-08T17:58:11;28.50;;;22.10;;
14116;SDS011;7137;51.436;6.544;2023-03-08T18:01:15;27.00;;;22.10;;
14116;SDS011;7137;51.436;6.544;2023-03-08T18:04:18;26.53;;;22.33;;
14116;SDS011;7137;51.436;6.544;2023-03-08T18:07:21;28.37;;;22.27;;
14116;SDS011;7137;51.436;6.544;2023-03-08T18:10:26;29.83;;;22.77;;
14116;SDS011;7137;51.436;6.544;2023-03-08T18:13:28;30.17;;;23.27;;
14116;SDS011;7137;51.436;6.544;2023-03-08T18:16:31;28.77;;;23.57;;
14116;SDS011;7137;51.436;6.544;2023-03-08T18:19:33;30.63;;;24.40;;
14116;SDS011;7137;51.436;6.544;2023-03-08T18:22:34;30.57;;;23.80;;
14116;SDS011;7137;51.436;6.544;2023-03-08T18:25:39;31.10;;;24.00;;
14116;SDS011;7137;51.436;6.544;2023-03-08T18:28:41;33.37;;;24.77;;
14116;SDS011;7137;51.436;6.544;2023-03-08T18:31:44;31.87;;;25.10;;